Time;durP1;ratioP1;P1;durP2;ratioP2;P2;SDS_P1;SDS_P2;PMS_P1;PMS_P2;Temp;Humidity;BMP_temperature;BMP_pressure;BME280_temperature;BME280_humidity;BME280_pressure;Samples;Min_cycle;Max_cycle;Signal;HPM_P1;HPM_P2
2022/04/14 00:00:36;;;;;;;5.47;3.50;;;17.20;66.40;;;;;;10459140;28;20542;-54
2022/04/14 00:05:36;;;;;;;5.32;3.28;;;17.20;66.50;;;;;;10458672;28;20104;-53
2022/04/14 00:10:37;;;;;;;5.18;4.20;;;17.30;66.30;;;;;;10458631;28;20068;-54
2022/04/14 00:15:38;;;;;;;5.18;3.03;;;17.30;66.30;;;;;;10458825;28;20029;-53
2022/04/14 00:20:38;;;;;;;6.45;3.58;;;17.20;66.30;;;;;;10458469;28;20511;-53
2022/04/14 00:25:39;;;;;;;6.18;3.70;;;17.20;66.40;;;;;;10457078;28;20036;-54
2022/04/14 00:30:40;;;;;;;5.78;3.63;;;17.20;66.40;;;;;;10457824;28;20457;-54
2022/04/14 00:35:40;;;;;;;4.45;3.30;;;17.20;66.40;;;;;;10459154;28;20071;-54
2022/04/14 00:40:41;;;;;;;4.90;3.30;;;17.20;66.40;;;;;;10456477;28;20120;-56
2022/04/14 00:45:42;;;;;;;4.70;3.35;;;17.20;66.50;;;;;;10456629;28;20124;-53
2022/04/14 00:50:43;;;;;;;4.95;3.35;;;17.20;66.40;;;;;;10457304;28;20029;-53
2022/04/14 00:55:44;;;;;;;4.95;3.40;;;17.20;66.60;;;;;;10457114;28;20065;-54
2022/04/14 01:00:45;;;;;;;5.93;3.83;;;17.20;66.60;;;;;;10456760;28;20112;-53
2022/04/14 01:05:47;;;;;;;4.88;3.63;;;17.20;66.60;;;;;;10455275;28;20021;-52
2022/04/14 01:10:49;;;;;;;5.60;2.75;;;17.10;66.60;;;;;;10454680;28;20063;-53
2022/04/14 01:15:55;;;;;;;3.97;3.30;;;17.10;67.10;;;;;;10456496;28;20465;-54
2022/04/14 01:20:56;;;;;;;5.70;3.95;;;17.10;66.50;;;;;;10455546;28;20040;-54
2022/04/14 01:25:56;;;;;;;4.53;3.53;;;17.10;66.50;;;;;;10454512;28;20772;-55
2022/04/14 01:30:57;;;;;;;4.90;3.35;;;17.10;66.50;;;;;;10455651;28;20047;-50
2022/04/14 01:35:58;;;;;;;6.43;3.83;;;17.10;66.50;;;;;;10458418;28;20068;-54
2022/04/14 01:40:59;;;;;;;5.30;3.13;;;17.10;66.50;;;;;;10455234;28;20461;-53
2022/04/14 01:46:00;;;;;;;5.25;3.95;;;17.20;66.30;;;;;;10455144;28;20037;-54
2022/04/14 01:51:01;;;;;;;5.45;4.10;;;17.20;66.00;;;;;;10454925;28;20489;-53
2022/04/14 01:56:01;;;;;;;4.60;3.60;;;17.30;66.00;;;;;;10453495;28;20033;-54
2022/04/14 02:01:02;;;;;;;4.22;3.17;;;17.20;66.00;;;;;;10454616;28;20121;-53
2022/04/14 02:06:03;;;;;;;5.00;4.10;;;17.20;66.10;;;;;;10454419;28;20027;-54
2022/04/14 02:11:04;;;;;;;5.53;4.38;;;17.20;66.20;;;;;;10454452;28;20393;-53
2022/04/14 02:16:05;;;;;;;5.07;3.53;;;17.20;66.20;;;;;;10453042;28;20029;-54
2022/04/14 02:21:06;;;;;;;5.25;3.33;;;17.20;66.20;;;;;;10452818;28;20025;-53
2022/04/14 02:26:06;;;;;;;4.75;3.78;;;17.20;66.20;;;;;;10452798;28;20021;-52
2022/04/14 02:31:07;;;;;;;4.85;3.55;;;17.20;66.20;;;;;;10453893;28;20049;-53
2022/04/14 02:36:08;;;;;;;4.90;3.80;;;17.10;66.20;;;;;;10454889;28;20025;-55
2022/04/14 02:41:08;;;;;;;5.88;4.07;;;17.20;66.40;;;;;;10453833;28;20067;-55
2022/04/14 02:46:10;;;;;;;5.80;4.65;;;17.10;66.20;;;;;;10453983;28;20080;-53
2022/04/14 02:51:11;;;;;;;5.10;3.75;;;17.10;66.10;;;;;;10453732;28;20045;-53
2022/04/14 02:56:11;;;;;;;5.63;4.22;;;17.10;66.20;;;;;;10453316;28;20110;-54
2022/04/14 03:01:12;;;;;;;4.82;3.60;;;17.10;65.80;;;;;;10453471;28;20118;-54
2022/04/14 03:06:13;;;;;;;5.07;3.83;;;17.10;65.70;;;;;;10453558;28;20421;-54
2022/04/14 03:11:14;;;;;;;5.15;3.85;;;17.10;65.80;;;;;;10453043;28;20137;-53
2022/04/14 03:16:14;;;;;;;4.20;3.35;;;17.10;65.80;;;;;;10453123;28;20028;-54
2022/04/14 03:21:15;;;;;;;5.45;4.43;;;17.00;65.90;;;;;;10468146;28;20414;-54
2022/04/14 03:26:16;;;;;;;4.90;3.90;;;17.00;66.00;;;;;;10453185;28;20050;-54
2022/04/14 03:31:18;;;;;;;5.25;3.90;;;17.10;66.20;;;;;;10455801;28;20041;-53
2022/04/14 03:36:18;;;;;;;4.45;3.60;;;17.10;66.10;;;;;;10462141;28;20087;-54
2022/04/14 03:41:19;;;;;;;4.75;3.88;;;17.10;66.10;;;;;;10459969;28;20110;-53
2022/04/14 03:46:20;;;;;;;5.05;3.95;;;17.10;66.00;;;;;;10460068;28;20059;-55
2022/04/14 03:51:22;;;;;;;6.00;4.22;;;17.10;66.10;;;;;;10459370;28;20128;-52
2022/04/14 03:56:23;;;;;;;5.32;3.85;;;17.10;66.70;;;;;;10459611;28;20027;-53
2022/04/14 04:01:23;;;;;;;4.75;3.42;;;17.10;66.10;;;;;;10458856;28;20483;-53
2022/04/14 04:06:24;;;;;;;4.50;3.45;;;17.10;66.00;;;;;;10458946;28;20489;-55
2022/04/14 04:11:25;;;;;;;4.53;3.70;;;17.10;66.00;;;;;;10458835;28;20037;-55
2022/04/14 04:16:25;;;;;;;4.70;3.60;;;17.10;66.00;;;;;;10458685;28;20111;-54
2022/04/14 04:21:27;;;;;;;4.20;3.35;;;17.10;66.10;;;;;;10458210;28;20081;-52
2022/04/14 04:26:27;;;;;;;4.18;3.75;;;17.00;66.00;;;;;;10458392;28;20481;-53
2022/04/14 04:31:28;;;;;;;4.35;3.22;;;17.00;66.20;;;;;;10457769;28;20136;-54
2022/04/14 04:36:29;;;;;;;4.10;3.30;;;17.00;66.10;;;;;;10457963;28;20055;-54
2022/04/14 04:41:30;;;;;;;4.85;4.35;;;17.00;66.10;;;;;;10456090;28;20495;-51
2022/04/14 04:46:31;;;;;;;6.47;4.22;;;17.00;66.40;;;;;;10456835;28;20071;-55
2022/04/14 04:51:32;;;;;;;13.23;5.68;;;17.10;66.50;;;;;;10452168;28;20033;-51
2022/04/14 04:56:33;;;;;;;8.38;4.40;;;17.20;67.20;;;;;;10455262;28;20560;-55
2022/04/14 05:01:34;;;;;;;7.30;4.45;;;17.30;67.10;;;;;;10456422;28;20119;-54
2022/04/14 05:06:34;;;;;;;10.25;4.72;;;17.30;67.40;;;;;;10456317;28;20040;-49
2022/04/14 05:11:35;;;;;;;7.43;4.68;;;17.30;67.10;;;;;;10457064;28;20603;-47
2022/04/14 05:16:36;;;;;;;11.65;4.93;;;17.50;67.30;;;;;;10456125;28;20041;-48
2022/04/14 05:21:37;;;;;;;12.13;4.85;;;17.40;67.90;;;;;;10456211;28;20021;-47
2022/04/14 05:26:38;;;;;;;12.05;4.88;;;17.40;67.60;;;;;;10453771;28;20040;-51
2022/04/14 05:31:38;;;;;;;15.00;4.97;;;17.30;68.40;;;;;;10482993;28;20538;-53
2022/04/14 05:36:39;;;;;;;17.48;4.72;;;17.30;68.40;;;;;;10472721;28;20071;-48
2022/04/14 05:41:40;;;;;;;27.48;6.22;;;17.30;68.50;;;;;;10469742;28;20056;-52
2022/04/14 05:46:41;;;;;;;43.67;6.88;;;17.20;68.20;;;;;;10454046;28;20491;-49
2022/04/14 05:51:41;;;;;;;19.05;5.72;;;17.10;68.30;;;;;;10454724;28;20071;-49
2022/04/14 05:56:42;;;;;;;45.58;8.02;;;17.10;68.50;;;;;;10469070;28;20500;-50
2022/04/14 06:01:44;;;;;;;28.33;7.53;;;17.10;68.60;;;;;;10461531;28;20060;-48
2022/04/14 06:06:45;;;;;;;24.33;6.43;;;17.20;68.80;;;;;;10451229;28;20120;-48
2022/04/14 06:11:45;;;;;;;24.95;6.90;;;17.10;68.70;;;;;;10454324;28;20468;-48
2022/04/14 06:16:46;;;;;;;38.25;8.82;;;17.10;68.80;;;;;;10451695;28;20124;-49
2022/04/14 06:21:47;;;;;;;23.08;8.15;;;17.10;69.10;;;;;;10453148;28;20106;-52
2022/04/14 06:26:48;;;;;;;20.42;6.40;;;17.10;68.50;;;;;;10449387;28;20063;-48
2022/04/14 06:31:49;;;;;;;37.55;7.82;;;17.10;68.70;;;;;;10450170;28;20566;-50
2022/04/14 06:36:50;;;;;;;17.80;6.32;;;17.10;68.40;;;;;;10463617;28;20033;-51
2022/04/14 06:41:50;;;;;;;16.13;6.47;;;17.10;68.30;;;;;;10452309;28;20040;-50
2022/04/14 06:46:51;;;;;;;16.65;5.93;;;17.10;68.10;;;;;;10452120;28;20491;-49
2022/04/14 06:51:52;;;;;;;15.90;6.10;;;17.10;68.00;;;;;;10453018;28;20025;-51
2022/04/14 06:56:53;;;;;;;19.85;5.72;;;17.10;68.00;;;;;;10467496;28;20473;-51
2022/04/14 07:01:54;;;;;;;23.20;7.22;;;17.10;68.00;;;;;;10452776;28;20485;-49
2022/04/14 07:06:55;;;;;;;19.90;6.22;;;17.00;67.80;;;;;;10455894;28;20087;-47
2022/04/14 07:11:56;;;;;;;7.78;4.05;;;17.00;67.80;;;;;;10460995;28;20037;-48
2022/04/14 07:16:58;;;;;;;8.60;4.88;;;17.00;67.70;;;;;;10460861;28;20104;-47
2022/04/14 07:21:59;;;;;;;10.32;4.80;;;17.00;67.70;;;;;;10459537;28;20025;-47
2022/04/14 07:26:59;;;;;;;7.18;4.15;;;17.00;67.70;;;;;;10460215;28;20099;-49
2022/04/14 07:32:00;;;;;;;13.85;5.38;;;17.00;68.20;;;;;;10459788;28;20087;-49
2022/04/14 07:37:01;;;;;;;11.60;4.63;;;17.00;67.70;;;;;;10461270;28;20352;-48
2022/04/14 07:42:01;;;;;;;6.93;3.92;;;16.90;67.50;;;;;;10459472;28;20033;-48
2022/04/14 07:47:02;;;;;;;10.57;5.82;;;16.90;67.40;;;;;;10459470;28;20113;-51
2022/04/14 07:52:03;;;;;;;14.05;5.70;;;16.90;67.40;;;;;;10459295;28;20040;-48
2022/04/14 07:57:04;;;;;;;10.50;4.85;;;17.00;67.50;;;;;;10458870;28;20025;-48
2022/04/14 08:02:05;;;;;;;7.63;4.13;;;17.00;67.50;;;;;;10457556;28;20488;-49
2022/04/14 08:07:06;;;;;;;8.77;4.75;;;17.00;67.50;;;;;;10458412;28;20424;-49
2022/04/14 08:12:08;;;;;;;8.65;4.53;;;17.10;67.40;;;;;;10458536;28;20093;-49
2022/04/14 08:17:09;;;;;;;8.13;4.13;;;17.10;67.30;;;;;;10457941;28;20501;-51
2022/04/14 08:22:09;;;;;;;10.50;5.28;;;17.10;67.20;;;;;;10457935;28;20068;-50
2022/04/14 08:27:10;;;;;;;8.55;4.40;;;17.10;67.20;;;;;;10457965;28;20491;-48
2022/04/14 08:32:12;;;;;;;8.27;5.10;;;17.10;67.20;;;;;;10458100;28;20063;-48
2022/04/14 08:37:12;;;;;;;10.52;4.80;;;17.10;67.20;;;;;;10463258;28;20021;-49
2022/04/14 08:42:20;;;;;;;9.05;4.10;;;17.00;67.20;;;;;;10457408;28;20075;-48
2022/04/14 08:47:22;;;;;;;7.43;4.53;;;17.00;67.20;;;;;;10455928;28;20073;-48
2022/04/14 08:52:23;;;;;;;6.55;4.57;;;17.10;67.30;;;;;;10455365;28;20036;-48
2022/04/14 08:57:24;;;;;;;8.10;3.63;;;17.10;67.30;;;;;;10456651;28;20025;-50
2022/04/14 09:02:26;;;;;;;8.55;4.60;;;17.10;67.30;;;;;;10456383;28;20075;-50
2022/04/14 09:07:27;;;;;;;6.53;3.83;;;17.10;67.20;;;;;;10454906;28;20052;-50
2022/04/14 09:12:29;;;;;;;7.30;3.90;;;17.10;67.10;;;;;;10456144;28;20071;-48
2022/04/14 09:17:30;;;;;;;8.80;4.20;;;17.20;67.10;;;;;;10454565;28;20082;-48
2022/04/14 09:22:31;;;;;;;10.68;3.83;;;17.20;67.00;;;;;;10455523;28;20451;-48
2022/04/14 09:27:37;;;;;;;6.47;3.92;;;17.30;66.90;;;;;;10454784;28;20363;-49
2022/04/14 09:32:42;;;;;;;7.43;3.60;;;17.30;66.80;;;;;;10455552;28;20476;-48
2022/04/14 09:37:43;;;;;;;5.28;3.28;;;17.30;66.80;;;;;;10461396;28;20020;-47
2022/04/14 09:42:49;;;;;;;5.15;3.58;;;17.40;66.70;;;;;;10453843;28;20552;-48
2022/04/14 09:47:51;;;;;;;8.35;3.35;;;17.40;66.70;;;;;;10453563;28;20029;-47
2022/04/14 09:53:07;;;;;;;4.80;3.55;;;17.40;66.60;;;;;;10454859;28;20810;-51
2022/04/14 09:58:11;;;;;;;4.53;2.78;;;17.50;67.10;;;;;;10454295;28;20029;-47
2022/04/14 10:03:18;;;;;;;6.70;3.25;;;17.50;66.40;;;;;;10454019;28;20033;-49
2022/04/14 10:08:20;;;;;;;6.05;3.33;;;17.60;66.30;;;;;;10454159;28;20044;-51
2022/04/14 10:13:20;;;;;;;5.40;3.78;;;17.60;66.10;;;;;;10453897;28;20039;-50
2022/04/14 10:18:21;;;;;;;5.05;2.88;;;17.60;66.10;;;;;;10453473;28;20032;-49
2022/04/14 10:23:23;;;;;;;5.35;3.13;;;17.70;66.00;;;;;;10453563;28;20072;-49
2022/04/14 10:28:26;;;;;;;5.25;3.13;;;17.70;65.90;;;;;;10453513;28;20045;-48
2022/04/14 10:33:28;;;;;;;5.50;3.20;;;17.70;65.90;;;;;;10452445;28;20541;-48
2022/04/14 10:38:30;;;;;;;7.63;2.72;;;17.80;65.90;;;;;;10458216;28;20048;-52
2022/04/14 10:43:34;;;;;;;6.28;3.30;;;17.80;65.90;;;;;;10459619;28;20040;-47
2022/04/14 10:48:39;;;;;;;4.80;3.08;;;17.90;65.80;;;;;;10460341;28;20108;-49
2022/04/14 10:54:04;;;;;;;3.65;2.80;;;17.90;65.60;;;;;;10461431;28;20029;-49
2022/04/14 10:59:07;;;;;;;4.88;3.42;;;17.90;65.50;;;;;;10461544;28;20417;-49
2022/04/14 11:04:42;;;;;;;4.75;3.20;;;17.90;65.60;;;;;;10461328;28;20082;-47
2022/04/14 11:09:48;;;;;;;5.50;3.13;;;17.90;65.70;;;;;;10459473;28;20039;-48
2022/04/14 11:15:04;;;;;;;6.28;3.05;;;17.90;65.70;;;;;;10470853;28;20029;-51
2022/04/14 11:20:23;;;;;;;4.70;3.28;;;17.90;65.50;;;;;;10467971;28;20029;-51
2022/04/14 11:25:47;;;;;;;3.72;2.97;;;17.90;65.70;;;;;;10460325;28;20025;-48
2022/04/14 11:30:49;;;;;;;4.75;2.95;;;18.00;65.50;;;;;;10459888;28;20388;-48
2022/04/14 11:35:50;;;;;;;4.75;2.90;;;18.10;65.30;;;;;;10442095;28;20033;-48
2022/04/14 11:40:59;;;;;;;5.97;3.10;;;18.10;65.50;;;;;;10459691;28;20057;-51
2022/04/14 11:46:00;;;;;;;;;;;18.10;65.40;;;;;;10460019;28;20582;-47
2022/04/14 11:51:01;;;;;;;3.75;2.47;;;18.20;65.20;;;;;;10473926;28;19966;-48
2022/04/14 11:56:02;;;;;;;3.50;2.42;;;18.20;65.00;;;;;;10458904;28;20036;-49
2022/04/14 12:01:06;;;;;;;5.03;2.60;;;18.10;65.10;;;;;;10459241;28;20500;-50
2022/04/14 12:06:09;;;;;;;5.53;2.65;;;18.00;65.40;;;;;;10458495;28;20037;-47
2022/04/14 12:11:16;;;;;;;4.10;2.50;;;17.90;65.60;;;;;;10458776;28;20405;-51
2022/04/14 12:16:17;;;;;;;3.63;2.42;;;17.80;65.70;;;;;;10458419;28;20068;-48
2022/04/14 12:21:26;;;;;;;4.15;2.28;;;17.80;65.80;;;;;;10461479;28;20055;-48
2022/04/14 12:26:32;;;;;;;3.20;2.10;;;17.70;65.90;;;;;;10457788;28;20408;-50
2022/04/14 12:31:33;;;;;;;4.40;2.53;;;17.70;66.00;;;;;;10456803;28;20059;-49
2022/04/14 12:36:37;;;;;;;2.85;1.98;;;17.60;66.00;;;;;;10456231;28;20072;-50
2022/04/14 12:41:38;;;;;;;5.18;2.95;;;17.60;66.60;;;;;;10457424;28;20021;-48
2022/04/14 12:46:41;;;;;;;3.47;2.20;;;17.60;66.10;;;;;;10455798;28;20039;-49
2022/04/14 12:52:04;;;;;;;3.08;2.17;;;17.60;66.10;;;;;;10455850;28;20390;-49
2022/04/14 12:57:10;;;;;;;3.85;1.98;;;17.50;66.10;;;;;;10457065;28;20025;-48
2022/04/14 13:02:11;;;;;;;2.97;2.55;;;17.50;66.20;;;;;;10455670;28;20385;-51
2022/04/14 13:07:14;;;;;;;7.50;2.40;;;17.50;66.30;;;;;;10456303;28;20056;-48
2022/04/14 13:12:45;;;;;;;2.72;1.80;;;17.50;66.10;;;;;;10454931;28;20029;-48
2022/04/14 13:17:47;;;;;;;3.72;2.42;;;17.70;66.30;;;;;;10463902;28;20440;-48
2022/04/14 13:22:53;;;;;;;2.17;1.58;;;17.80;65.70;;;;;;10463549;28;20485;-50
2022/04/14 13:27:53;;;;;;;2.38;1.92;;;17.70;65.80;;;;;;10455093;28;20052;-50
2022/04/14 13:32:54;;;;;;;3.50;2.00;;;17.60;65.90;;;;;;10455203;28;20473;-52
2022/04/14 13:37:55;;;;;;;3.22;2.28;;;17.60;66.00;;;;;;10455289;28;20029;-48
2022/04/14 13:42:56;;;;;;;3.05;2.15;;;17.60;66.10;;;;;;10453624;28;20488;-49
2022/04/14 13:47:57;;;;;;;3.60;1.92;;;17.60;66.10;;;;;;10454803;28;20057;-50
2022/04/14 13:52:57;;;;;;;2.97;1.80;;;17.50;66.00;;;;;;10454562;28;20041;-48
2022/04/14 13:57:58;;;;;;;2.53;1.90;;;17.50;66.10;;;;;;10454702;28;20373;-52
2022/04/14 14:02:59;;;;;;;3.85;1.92;;;17.50;66.00;;;;;;10453087;28;20432;-51
2022/04/14 14:07:59;;;;;;;3.53;2.40;;;17.50;66.00;;;;;;10454199;28;20072;-48
2022/04/14 14:13:00;;;;;;;3.45;2.00;;;17.50;66.00;;;;;;10453846;28;20104;-55
2022/04/14 14:18:02;;;;;;;2.65;1.77;;;17.60;66.10;;;;;;10452454;28;20123;-49
2022/04/14 14:23:03;;;;;;;2.67;2.05;;;17.70;65.70;;;;;;10463189;28;20382;-51
2022/04/14 14:28:05;;;;;;;2.33;1.80;;;17.70;65.70;;;;;;10453568;28;20162;-50
2022/04/14 14:33:05;;;;;;;4.25;2.20;;;17.70;65.70;;;;;;10453575;28;20025;-49
2022/04/14 14:38:07;;;;;;;3.47;2.22;;;17.60;65.70;;;;;;10452396;28;20515;-49
2022/04/14 14:43:07;;;;;;;3.15;2.33;;;17.60;65.70;;;;;;10451999;28;20530;-48
2022/04/14 14:48:08;;;;;;;4.97;2.55;;;17.60;65.80;;;;;;10453941;28;20033;-51
2022/04/14 14:53:11;;;;;;;3.63;2.50;;;17.60;65.90;;;;;;10453228;28;20162;-51
2022/04/14 15:03:31;;;;;;;4.40;2.80;;;17.60;65.70;;;;;;10453570;28;20206;-48
2022/04/14 15:08:31;;;;;;;4.05;2.63;;;17.70;65.50;;;;;;10450645;28;20025;-48
2022/04/14 15:13:32;;;;;;;3.40;2.83;;;17.70;65.50;;;;;;10448099;28;20038;-52
2022/04/14 15:18:33;;;;;;;3.80;2.30;;;17.70;65.40;;;;;;10464967;28;20542;-48
2022/04/14 15:23:33;;;;;;;3.88;2.20;;;17.80;65.30;;;;;;10462931;28;20079;-50
2022/04/14 15:28:34;;;;;;;4.60;3.00;;;17.80;65.00;;;;;;10456941;28;20076;-53
2022/04/14 15:33:35;;;;;;;13.43;8.63;;;17.80;65.10;;;;;;10460357;28;20037;-53
2022/04/14 15:38:38;;;;;;;10.80;7.35;;;17.80;65.40;;;;;;10459282;28;20025;-49
2022/04/14 15:43:39;;;;;;;8.27;5.10;;;18.10;67.50;;;;;;10459281;28;20033;-51
2022/04/14 15:48:40;;;;;;;4.30;3.05;;;18.00;66.50;;;;;;10458694;28;20455;-51
2022/04/14 15:53:41;;;;;;;6.30;3.50;;;17.90;65.30;;;;;;10459399;28;20139;-48
2022/04/14 15:58:41;;;;;;;8.50;3.72;;;17.80;65.30;;;;;;10457891;28;20043;-52
2022/04/14 16:03:42;;;;;;;19.17;6.00;;;17.80;65.30;;;;;;10457466;28;20064;-54
2022/04/14 16:08:43;;;;;;;14.35;4.65;;;18.00;68.30;;;;;;10458144;28;20044;-53
2022/04/14 16:13:43;;;;;;;17.80;5.45;;;18.30;68.10;;;;;;10456074;28;20113;-55
2022/04/14 16:18:44;;;;;;;16.25;5.53;;;18.30;67.60;;;;;;10457769;28;20107;-49
2022/04/14 16:23:45;;;;;;;13.05;4.63;;;18.20;67.40;;;;;;10457807;28;20033;-49
2022/04/14 16:28:45;;;;;;;22.95;6.22;;;18.20;67.40;;;;;;10455357;28;20041;-48
2022/04/14 16:33:46;;;;;;;26.67;7.55;;;18.10;68.30;;;;;;10456950;28;20116;-48
2022/04/14 16:38:47;;;;;;;21.38;6.22;;;18.10;67.60;;;;;;10456603;28;20530;-51
2022/04/14 16:43:48;;;;;;;35.20;7.20;;;18.10;67.70;;;;;;10456972;28;20106;-48
2022/04/14 16:48:49;;;;;;;39.75;9.57;;;18.10;67.90;;;;;;10457033;28;20151;-47
2022/04/14 16:53:49;;;;;;;24.15;6.60;;;18.10;67.90;;;;;;10460251;28;20119;-49
2022/04/14 16:58:50;;;;;;;20.20;5.47;;;18.00;67.80;;;;;;10472860;28;20102;-49
2022/04/14 17:03:51;;;;;;;19.50;5.78;;;18.00;67.20;;;;;;10474439;28;20068;-48
2022/04/14 17:08:51;;;;;;;19.48;5.57;;;18.00;67.50;;;;;;10474027;28;20035;-48
2022/04/14 17:13:53;;;;;;;27.83;7.22;;;18.00;67.70;;;;;;10471330;28;20064;-49
2022/04/14 17:18:54;;;;;;;22.65;5.18;;;18.00;67.70;;;;;;10488860;28;20021;-49
2022/04/14 17:29:14;;;;;;;22.23;6.10;;;17.90;67.90;;;;;;10453884;28;20049;-48
2022/04/14 17:34:16;;;;;;;14.45;5.00;;;17.90;67.30;;;;;;10457313;28;20037;-48
2022/04/14 17:39:17;;;;;;;15.45;5.43;;;17.90;67.50;;;;;;10455083;28;20029;-48
2022/04/14 17:44:19;;;;;;;13.25;5.07;;;17.80;67.40;;;;;;10457480;28;20497;-49
2022/04/14 17:49:19;;;;;;;13.80;5.10;;;17.90;68.40;;;;;;10454308;28;20064;-49
2022/04/14 17:54:20;;;;;;;14.77;5.35;;;17.90;68.00;;;;;;10485538;28;20110;-50
2022/04/14 17:59:20;;;;;;;11.57;4.65;;;17.90;68.50;;;;;;10465452;28;20087;-49
2022/04/14 18:04:21;;;;;;;14.95;5.63;;;17.90;68.10;;;;;;10462253;28;20485;-50
2022/04/14 18:09:22;;;;;;;13.68;5.25;;;17.80;67.50;;;;;;10461786;28;20119;-50
2022/04/14 18:14:23;;;;;;;9.80;4.30;;;17.80;67.50;;;;;;10453907;28;20500;-49
2022/04/14 18:19:23;;;;;;;12.13;3.90;;;17.70;67.40;;;;;;10451545;28;20029;-48
2022/04/14 18:24:24;;;;;;;16.05;4.05;;;17.70;67.50;;;;;;10460227;28;20108;-49
2022/04/14 18:29:25;;;;;;;15.35;5.25;;;17.70;67.50;;;;;;10452625;28;20087;-49
2022/04/14 18:34:26;;;;;;;11.35;4.70;;;17.70;67.40;;;;;;10453346;28;20227;-49
2022/04/14 18:39:26;;;;;;;9.27;3.67;;;17.70;67.40;;;;;;10452536;28;20503;-48
2022/04/14 18:44:27;;;;;;;8.25;3.15;;;17.70;67.30;;;;;;10453290;28;20437;-49
2022/04/14 18:49:28;;;;;;;10.63;3.60;;;17.70;67.20;;;;;;10453542;28;20151;-48
2022/04/14 18:54:29;;;;;;;9.15;3.53;;;17.70;67.10;;;;;;10450802;28;20494;-50
2022/04/14 18:59:29;;;;;;;10.35;3.50;;;17.70;67.60;;;;;;10451673;28;20035;-47
2022/04/14 19:04:30;;;;;;;8.20;3.50;;;17.70;67.00;;;;;;10460585;28;20113;-48
2022/04/14 19:09:31;;;;;;;8.40;3.03;;;17.70;67.30;;;;;;10459064;28;20036;-45
2022/04/14 19:14:31;;;;;;;17.42;4.45;;;17.80;67.30;;;;;;10458366;28;20382;-48
2022/04/14 19:19:32;;;;;;;8.85;3.63;;;17.70;67.00;;;;;;10459900;28;20029;-49
2022/04/14 19:24:33;;;;;;;10.77;4.32;;;17.70;67.00;;;;;;10469055;28;20113;-48
2022/04/14 19:29:35;;;;;;;5.93;2.70;;;17.70;66.80;;;;;;10458555;28;20496;-49
2022/04/14 19:34:36;;;;;;;7.38;3.60;;;17.70;66.70;;;;;;10459008;28;20385;-48
2022/04/14 19:39:37;;;;;;;10.23;2.67;;;17.70;66.70;;;;;;10464717;28;20064;-47
2022/04/14 19:44:38;;;;;;;5.47;2.72;;;17.70;66.60;;;;;;10460380;28;20040;-49
2022/04/14 19:49:42;;;;;;;8.90;2.78;;;17.70;66.50;;;;;;10457161;28;20048;-47
2022/04/14 19:54:43;;;;;;;5.70;2.60;;;17.70;66.60;;;;;;10458840;28;20044;-48
2022/04/14 19:59:44;;;;;;;6.28;2.67;;;17.70;66.60;;;;;;10473299;28;20076;-51
2022/04/14 20:04:44;;;;;;;3.65;1.92;;;17.70;66.40;;;;;;10457455;28;20079;-47
2022/04/14 20:09:49;;;;;;;9.40;2.83;;;17.70;66.40;;;;;;10455641;28;20675;-48
2022/04/14 20:14:50;;;;;;;5.78;2.33;;;17.70;66.40;;;;;;10455398;28;20115;-47
2022/04/14 20:19:50;;;;;;;3.63;2.13;;;17.70;66.30;;;;;;10456544;28;20492;-47
2022/04/14 20:24:53;;;;;;;5.75;3.05;;;17.70;66.30;;;;;;10464127;28;20040;-48
2022/04/14 20:29:55;;;;;;;3.63;2.15;;;17.70;66.30;;;;;;10456999;28;20033;-52
2022/04/14 20:34:56;;;;;;;4.85;2.28;;;17.60;66.30;;;;;;10457602;28;20116;-50
2022/04/14 20:39:56;;;;;;;5.47;2.28;;;17.70;66.40;;;;;;10458406;28;20116;-48
2022/04/14 20:44:57;;;;;;;5.82;2.63;;;17.60;66.30;;;;;;10457690;28;20057;-50
2022/04/14 20:49:58;;;;;;;4.18;2.08;;;17.60;66.30;;;;;;10457666;28;20075;-48
2022/04/14 20:54:59;;;;;;;5.32;2.47;;;17.60;66.20;;;;;;10456402;28;20480;-47
2022/04/14 21:00:00;;;;;;;3.83;1.95;;;17.60;66.30;;;;;;10455348;28;20021;-49
2022/04/14 21:05:01;;;;;;;3.10;2.10;;;17.60;66.20;;;;;;10456669;28;20128;-47
2022/04/14 21:10:02;;;;;;;6.07;2.08;;;17.60;66.20;;;;;;10457099;28;20119;-47
2022/04/14 21:15:04;;;;;;;4.88;2.33;;;17.60;66.90;;;;;;10471962;28;20629;-48
2022/04/14 21:20:06;;;;;;;5.22;2.35;;;17.60;66.10;;;;;;10456383;28;20024;-47
2022/04/14 21:25:08;;;;;;;4.22;2.33;;;17.60;66.10;;;;;;10461192;28;20505;-47
2022/04/14 21:30:09;;;;;;;8.65;2.50;;;17.60;66.00;;;;;;10454900;28;20136;-48
2022/04/14 21:35:10;;;;;;;3.20;2.00;;;17.60;65.90;;;;;;10455619;28;20380;-48
2022/04/14 21:40:12;;;;;;;3.92;1.67;;;17.60;65.90;;;;;;10455933;28;20393;-47
2022/04/14 21:45:31;;;;;;;4.82;2.20;;;17.60;65.90;;;;;;10453970;28;20033;-48
2022/04/14 21:50:33;;;;;;;4.53;1.90;;;17.60;65.90;;;;;;10455422;28;20036;-48
2022/04/14 21:55:34;;;;;;;3.05;1.75;;;17.60;65.90;;;;;;10453597;28;20029;-51
2022/04/14 22:06:01;;;;;;;4.55;2.55;;;17.50;65.70;;;;;;10452485;28;20048;-50
2022/04/14 22:11:02;;;;;;;4.28;2.03;;;17.50;65.70;;;;;;10453669;28;20460;-49
2022/04/14 22:16:04;;;;;;;5.38;2.63;;;17.50;65.70;;;;;;10454376;28;20033;-47
2022/04/14 22:21:05;;;;;;;4.93;1.70;;;17.50;65.60;;;;;;10459287;28;20031;-48
2022/04/14 22:26:06;;;;;;;8.95;2.22;;;17.50;65.70;;;;;;10469573;28;20033;-49
2022/04/14 22:31:07;;;;;;;4.40;2.15;;;17.50;65.60;;;;;;10454297;28;20048;-48
2022/04/14 22:36:10;;;;;;;3.53;2.15;;;17.50;65.60;;;;;;10459860;28;20044;-49
2022/04/14 22:41:12;;;;;;;3.90;2.10;;;17.50;65.50;;;;;;10467579;28;20033;-49
2022/04/14 22:46:13;;;;;;;2.90;1.90;;;17.50;65.50;;;;;;10466652;28;20483;-47
2022/04/14 22:51:14;;;;;;;5.30;2.45;;;17.50;65.40;;;;;;10467376;28;20063;-50
2022/04/14 22:56:16;;;;;;;3.47;2.55;;;17.50;65.30;;;;;;10467711;28;20124;-48
2022/04/14 23:01:19;;;;;;;4.72;2.28;;;17.40;65.30;;;;;;10467451;28;20028;-50
2022/04/14 23:06:20;;;;;;;2.92;1.75;;;17.50;65.30;;;;;;10457538;28;20028;-50
2022/04/14 23:11:21;;;;;;;4.57;2.35;;;17.40;65.30;;;;;;10467179;28;20032;-47
2022/04/14 23:16:23;;;;;;;4.55;1.88;;;17.40;65.30;;;;;;10466864;28;20130;-48
2022/04/14 23:21:23;;;;;;;5.18;2.50;;;17.40;65.30;;;;;;10472378;28;20024;-48
2022/04/14 23:26:24;;;;;;;5.28;2.55;;;17.40;65.20;;;;;;10467004;28;20060;-49
2022/04/14 23:31:25;;;;;;;4.20;2.20;;;17.40;65.20;;;;;;10466803;28;20132;-46
2022/04/14 23:36:29;;;;;;;5.57;1.95;;;17.40;65.20;;;;;;10465543;28;20068;-50
2022/04/14 23:41:30;;;;;;;4.35;1.95;;;17.40;65.20;;;;;;10465359;28;20106;-50
2022/04/14 23:46:31;;;;;;;3.08;1.70;;;17.40;65.20;;;;;;10464844;28;20697;-48
2022/04/14 23:51:32;;;;;;;3.13;1.70;;;17.40;65.10;;;;;;10459796;28;20035;-47
2022/04/14 23:56:33;;;;;;;5.05;1.98;;;17.40;65.10;;;;;;10459930;28;20066;-48
